Time;durP1;ratioP1;P1;durP2;ratioP2;P2;SDS_P1;SDS_P2;PMS_P1;PMS_P2;Temp;Humidity;BMP_temperature;BMP_pressure;BME280_temperature;BME280_humidity;BME280_pressure;Samples;Min_cycle;Max_cycle;Signal;HPM_P1;HPM_P2
2023/03/19 00:02:10;;;;;;;15.48;12.15;;;8.90;99.90;;;;;;5039284;28;20045;-58
2023/03/19 00:04:35;;;;;;;16.20;13.27;;;8.90;99.90;;;;;;5040476;28;20390;-58
2023/03/19 00:07:01;;;;;;;13.88;11.45;;;8.90;99.90;;;;;;5038630;28;20017;-58
2023/03/19 00:09:26;;;;;;;13.20;11.80;;;8.80;99.90;;;;;;5043177;28;20390;-55
2023/03/19 00:11:52;;;;;;;14.48;11.68;;;8.80;99.90;;;;;;5046976;28;20025;-57
2023/03/19 00:14:18;;;;;;;17.00;12.60;;;8.80;99.90;;;;;;5038426;28;20029;-56
2023/03/19 00:16:43;;;;;;;15.23;13.68;;;8.80;99.90;;;;;;5043421;28;20025;-58
2023/03/19 00:19:09;;;;;;;14.95;12.20;;;8.80;99.90;;;;;;5047874;28;20025;-56
2023/03/19 00:21:35;;;;;;;14.65;12.25;;;8.80;99.90;;;;;;5041512;28;20487;-57
2023/03/19 00:24:01;;;;;;;15.68;12.23;;;8.80;99.90;;;;;;5040073;28;20085;-55
2023/03/19 00:26:32;;;;;;;15.85;11.70;;;8.80;99.90;;;;;;5048684;28;20052;-55
2023/03/19 00:28:58;;;;;;;15.00;12.30;;;8.80;99.90;;;;;;5040759;28;20104;-55
2023/03/19 00:31:25;;;;;;;17.60;12.25;;;8.80;99.90;;;;;;5049467;28;20033;-54
2023/03/19 00:33:52;;;;;;;15.18;11.52;;;8.90;99.90;;;;;;5039773;28;20486;-56
2023/03/19 00:36:17;;;;;;;15.40;11.10;;;8.90;99.90;;;;;;5044692;28;20021;-54
2023/03/19 00:38:45;;;;;;;14.70;11.80;;;8.90;99.90;;;;;;5045500;28;20501;-54
2023/03/19 00:41:11;;;;;;;14.38;11.48;;;8.90;99.90;;;;;;5040082;28;20021;-56
2023/03/19 00:43:37;;;;;;;12.88;11.38;;;8.90;99.90;;;;;;5045255;28;20033;-56
2023/03/19 00:46:03;;;;;;;12.75;10.45;;;8.90;99.90;;;;;;5049043;28;20558;-54
2023/03/19 00:48:29;;;;;;;14.20;11.05;;;8.90;99.90;;;;;;5041526;28;20032;-56
2023/03/19 00:51:00;;;;;;;13.57;11.35;;;8.80;99.90;;;;;;5045653;28;20029;-57
2023/03/19 00:53:26;;;;;;;12.40;10.68;;;8.80;99.90;;;;;;5046351;28;20029;-55
2023/03/19 00:55:51;;;;;;;13.18;9.85;;;8.80;99.90;;;;;;5049511;28;20402;-56
2023/03/19 00:58:17;;;;;;;12.27;10.25;;;8.80;99.90;;;;;;5046848;28;20418;-56
2023/03/19 01:00:42;;;;;;;14.38;11.02;;;8.70;99.90;;;;;;5036712;28;20391;-55
2023/03/19 01:03:08;;;;;;;13.38;10.82;;;8.70;99.90;;;;;;5041366;28;20025;-57
2023/03/19 01:05:35;;;;;;;12.18;10.88;;;8.70;99.90;;;;;;5048272;28;20025;-58
2023/03/19 01:08:01;;;;;;;13.43;10.43;;;8.70;99.90;;;;;;5048701;28;20020;-53
2023/03/19 01:10:27;;;;;;;12.25;10.15;;;8.60;99.90;;;;;;5044979;28;20029;-55
2023/03/19 01:12:52;;;;;;;13.95;11.65;;;8.60;99.90;;;;;;5037024;28;20029;-55
2023/03/19 01:15:18;;;;;;;12.30;10.40;;;8.50;99.90;;;;;;5048473;28;20043;-56
2023/03/19 01:17:44;;;;;;;11.07;9.88;;;8.60;99.90;;;;;;5038746;28;20044;-55
2023/03/19 01:20:17;;;;;;;12.15;10.20;;;8.50;99.90;;;;;;5044209;28;20433;-55
2023/03/19 01:22:43;;;;;;;12.18;10.23;;;8.50;99.90;;;;;;5047757;28;20491;-57
2023/03/19 01:25:11;;;;;;;12.65;9.48;;;8.40;99.90;;;;;;5044669;28;20158;-56
2023/03/19 01:27:37;;;;;;;11.18;9.88;;;8.40;99.90;;;;;;5044880;28;20120;-56
2023/03/19 01:30:03;;;;;;;12.13;10.05;;;8.40;99.90;;;;;;5044300;28;20021;-56
2023/03/19 01:32:30;;;;;;;14.65;10.80;;;8.40;99.90;;;;;;5037850;28;20021;-54
2023/03/19 01:34:55;;;;;;;11.73;9.98;;;8.40;99.90;;;;;;5037061;28;20017;-55
2023/03/19 01:37:21;;;;;;;10.52;9.38;;;8.40;99.90;;;;;;5044125;28;20093;-56
2023/03/19 01:39:46;;;;;;;13.57;10.70;;;8.40;99.90;;;;;;5032135;28;20014;-57
2023/03/19 01:42:12;;;;;;;11.85;9.60;;;8.40;99.90;;;;;;5047569;28;20028;-54
2023/03/19 01:44:39;;;;;;;11.48;9.90;;;8.30;99.90;;;;;;5038210;28;20044;-57
2023/03/19 01:47:15;;;;;;;11.40;9.65;;;8.40;99.90;;;;;;5047398;28;20400;-52
2023/03/19 01:49:41;;;;;;;9.35;8.35;;;8.30;99.90;;;;;;5034384;28;20534;-57
2023/03/19 01:52:08;;;;;;;11.57;9.35;;;8.30;99.90;;;;;;5037325;28;20028;-58
2023/03/19 01:54:35;;;;;;;9.82;8.82;;;8.30;99.90;;;;;;5038132;28;20017;-57
2023/03/19 01:57:05;;;;;;;11.57;7.88;;;8.20;99.90;;;;;;5003692;28;1040465;-58
2023/03/19 01:59:35;;;;;;;9.88;8.05;;;8.20;99.90;;;;;;5047692;28;20114;-57
2023/03/19 02:02:06;;;;;;;9.65;8.70;;;8.20;99.90;;;;;;5038488;28;20800;-54
2023/03/19 02:04:34;;;;;;;10.57;8.63;;;8.20;99.90;;;;;;5046346;28;20078;-57
2023/03/19 02:07:01;;;;;;;10.95;9.07;;;8.20;99.90;;;;;;5040957;28;20033;-56
2023/03/19 02:09:29;;;;;;;11.30;9.40;;;8.20;99.90;;;;;;5049511;28;20036;-56
2023/03/19 02:11:55;;;;;;;12.40;9.13;;;8.30;99.90;;;;;;5041205;28;20284;-56
2023/03/19 02:14:22;;;;;;;11.50;8.80;;;8.20;99.90;;;;;;5046836;28;20037;-58
2023/03/19 02:16:48;;;;;;;11.10;8.35;;;8.30;99.90;;;;;;5043799;28;20029;-55
2023/03/19 02:19:20;;;;;;;11.35;8.88;;;8.30;99.90;;;;;;5038613;28;20036;-57
2023/03/19 02:21:46;;;;;;;10.55;9.05;;;8.20;99.90;;;;;;5043909;28;20057;-58
2023/03/19 02:24:18;;;;;;;9.80;8.57;;;8.20;99.90;;;;;;5045853;28;20444;-57
2023/03/19 02:26:46;;;;;;;10.52;9.43;;;8.30;99.90;;;;;;5049437;28;20028;-58
2023/03/19 02:29:12;;;;;;;10.82;9.23;;;8.20;99.90;;;;;;5050090;28;20096;-57
2023/03/19 02:31:37;;;;;;;10.32;8.73;;;8.20;99.90;;;;;;5041051;28;20147;-58
2023/03/19 02:34:23;;;;;;;9.00;7.90;;;8.20;99.90;;;;;;5044542;28;20037;-58
2023/03/19 02:36:59;;;;;;;10.43;8.20;;;8.20;99.90;;;;;;5044668;28;20049;-55
2023/03/19 02:39:28;;;;;;;9.30;8.13;;;8.20;99.90;;;;;;5040724;28;20307;-56
2023/03/19 02:41:56;;;;;;;9.38;7.80;;;8.20;99.90;;;;;;5044072;28;20116;-56
2023/03/19 02:44:21;;;;;;;10.77;8.05;;;8.30;99.90;;;;;;5045679;28;20024;-57
2023/03/19 02:46:47;;;;;;;10.80;7.85;;;8.30;99.90;;;;;;5047229;28;20039;-55
2023/03/19 02:49:12;;;;;;;10.82;8.80;;;8.30;99.90;;;;;;5045839;28;20040;-57
2023/03/19 02:51:38;;;;;;;8.82;7.47;;;8.30;99.90;;;;;;5050149;28;20538;-56
2023/03/19 02:54:04;;;;;;;9.30;7.65;;;8.30;99.90;;;;;;5041257;28;20515;-56
2023/03/19 02:56:30;;;;;;;10.55;8.50;;;8.30;99.90;;;;;;5038505;28;20037;-57
2023/03/19 02:58:56;;;;;;;8.32;7.53;;;8.30;99.90;;;;;;5041763;28;20032;-51
2023/03/19 03:01:21;;;;;;;8.82;7.35;;;8.20;99.90;;;;;;5046343;28;20036;-55
2023/03/19 03:03:47;;;;;;;9.02;7.32;;;8.20;99.90;;;;;;5041715;28;20104;-58
2023/03/19 03:06:13;;;;;;;10.60;7.75;;;8.20;99.90;;;;;;5041675;28;20509;-55
2023/03/19 03:08:39;;;;;;;9.25;7.45;;;8.20;99.90;;;;;;5048479;28;20048;-54
2023/03/19 03:11:04;;;;;;;10.18;7.65;;;8.20;99.90;;;;;;5046858;28;20053;-56
2023/03/19 03:13:30;;;;;;;11.38;7.25;;;8.20;99.90;;;;;;5039568;28;20143;-54
2023/03/19 03:15:56;;;;;;;8.75;6.85;;;8.10;99.90;;;;;;5040439;28;20020;-57
2023/03/19 03:18:21;;;;;;;8.23;7.22;;;8.10;99.90;;;;;;5039146;28;20028;-58
2023/03/19 03:20:47;;;;;;;7.63;6.93;;;8.10;99.90;;;;;;5042961;28;20045;-57
2023/03/19 03:23:13;;;;;;;7.57;6.88;;;8.10;99.90;;;;;;5043429;28;20021;-54
2023/03/19 03:25:38;;;;;;;7.65;6.43;;;8.00;99.90;;;;;;5049559;28;20434;-56
2023/03/19 03:28:04;;;;;;;8.15;6.65;;;8.00;99.90;;;;;;5050051;28;20033;-54
2023/03/19 03:30:30;;;;;;;9.05;6.75;;;8.00;99.90;;;;;;5048017;28;20052;-56
2023/03/19 03:32:55;;;;;;;8.52;7.10;;;8.00;99.90;;;;;;5048772;28;20033;-58
2023/03/19 03:35:21;;;;;;;11.02;7.20;;;8.00;99.90;;;;;;5045688;28;20398;-57
2023/03/19 03:37:48;;;;;;;8.02;7.22;;;7.90;99.90;;;;;;5041839;28;20426;-57
2023/03/19 03:40:14;;;;;;;8.38;7.15;;;7.90;99.90;;;;;;5045944;28;20029;-58
2023/03/19 03:42:40;;;;;;;7.43;6.68;;;7.90;99.90;;;;;;5041478;28;20024;-54
2023/03/19 03:45:08;;;;;;;8.60;7.40;;;7.90;99.90;;;;;;5047855;28;20017;-55
2023/03/19 03:47:34;;;;;;;8.13;6.82;;;7.90;99.90;;;;;;5045678;28;20033;-58
2023/03/19 03:50:00;;;;;;;10.30;7.57;;;7.80;99.90;;;;;;5048584;28;20014;-56
2023/03/19 03:52:30;;;;;;;8.27;7.47;;;7.80;99.90;;;;;;5050755;28;20021;-57
2023/03/19 03:54:57;;;;;;;8.13;6.55;;;7.80;99.90;;;;;;5042959;28;20017;-55
2023/03/19 03:57:23;;;;;;;8.35;7.13;;;7.80;99.90;;;;;;5050090;28;20024;-57
2023/03/19 03:59:49;;;;;;;8.38;7.15;;;7.80;99.90;;;;;;5046549;28;20507;-57
2023/03/19 04:02:14;;;;;;;8.30;7.38;;;7.80;99.90;;;;;;5049205;28;20131;-56
2023/03/19 04:04:40;;;;;;;7.05;6.35;;;7.80;99.90;;;;;;5048514;28;20052;-54
2023/03/19 04:07:06;;;;;;;7.65;6.93;;;7.70;99.90;;;;;;5044045;28;20021;-53
2023/03/19 04:09:32;;;;;;;8.02;6.75;;;7.80;99.90;;;;;;5049270;28;20028;-55
2023/03/19 04:11:58;;;;;;;7.65;6.35;;;7.70;99.90;;;;;;5042688;28;20026;-54
2023/03/19 04:14:23;;;;;;;8.20;7.30;;;7.70;99.90;;;;;;5048264;28;20037;-56
2023/03/19 04:16:50;;;;;;;7.47;6.60;;;7.70;99.90;;;;;;5040389;28;20462;-56
2023/03/19 04:19:15;;;;;;;9.63;7.25;;;7.80;99.90;;;;;;5042524;28;20029;-57
2023/03/19 04:21:41;;;;;;;9.07;7.25;;;7.70;99.90;;;;;;5044553;28;20078;-56
2023/03/19 04:24:08;;;;;;;7.22;6.38;;;7.80;99.90;;;;;;5046151;28;20535;-55
2023/03/19 04:26:34;;;;;;;7.28;6.55;;;7.80;99.90;;;;;;5043577;28;20099;-55
2023/03/19 04:29:00;;;;;;;7.53;6.82;;;7.70;99.90;;;;;;5042561;28;20571;-56
2023/03/19 04:31:25;;;;;;;9.10;7.18;;;7.80;99.90;;;;;;5041734;28;20091;-56
2023/03/19 04:33:51;;;;;;;7.40;6.70;;;7.80;99.90;;;;;;5041031;28;20430;-56
2023/03/19 04:36:16;;;;;;;9.15;7.00;;;7.80;99.90;;;;;;5045223;28;20241;-55
2023/03/19 04:38:42;;;;;;;7.07;6.07;;;7.70;99.90;;;;;;5045150;28;20367;-52
2023/03/19 04:41:07;;;;;;;7.18;6.28;;;7.70;99.90;;;;;;5047667;28;20025;-53
2023/03/19 04:43:33;;;;;;;7.53;6.32;;;7.70;99.90;;;;;;5046184;28;20024;-56
2023/03/19 04:45:59;;;;;;;9.90;6.65;;;7.70;99.90;;;;;;5043309;28;20045;-56
2023/03/19 04:48:25;;;;;;;8.43;6.78;;;7.80;99.90;;;;;;5043596;28;20440;-54
2023/03/19 04:50:52;;;;;;;7.50;6.47;;;7.80;99.90;;;;;;5041985;28;20037;-56
2023/03/19 04:53:19;;;;;;;6.72;5.63;;;7.80;99.90;;;;;;5043609;28;20442;-57
2023/03/19 04:55:46;;;;;;;10.85;7.10;;;7.80;99.90;;;;;;5041906;28;20409;-55
2023/03/19 04:58:11;;;;;;;7.88;6.47;;;7.80;99.90;;;;;;5037626;28;20041;-56
2023/03/19 05:00:37;;;;;;;8.07;6.25;;;7.70;99.90;;;;;;5046955;28;20033;-56
2023/03/19 05:03:03;;;;;;;7.07;5.35;;;7.70;99.90;;;;;;5049028;28;20491;-54
2023/03/19 05:05:28;;;;;;;8.73;5.82;;;7.70;99.90;;;;;;5041626;28;20029;-58
2023/03/19 05:07:56;;;;;;;7.88;5.95;;;7.70;99.90;;;;;;5041881;28;20080;-54
2023/03/19 05:10:21;;;;;;;6.25;5.65;;;7.70;99.90;;;;;;5044839;28;20108;-56
2023/03/19 05:12:47;;;;;;;7.18;6.32;;;7.70;99.90;;;;;;5042661;28;20484;-54
2023/03/19 05:15:14;;;;;;;8.07;6.03;;;7.70;99.90;;;;;;5044071;28;20021;-57
2023/03/19 05:17:40;;;;;;;5.80;5.20;;;7.60;99.90;;;;;;5043033;28;20040;-57
2023/03/19 05:20:06;;;;;;;6.22;5.63;;;7.60;99.90;;;;;;5043298;28;20017;-56
2023/03/19 05:22:31;;;;;;;6.70;5.63;;;7.60;99.90;;;;;;5039542;28;20044;-52
2023/03/19 05:24:57;;;;;;;6.25;5.38;;;7.70;99.90;;;;;;5040453;28;20022;-54
2023/03/19 05:27:22;;;;;;;6.88;5.78;;;7.60;99.90;;;;;;5043967;28;20553;-57
2023/03/19 05:29:48;;;;;;;6.85;6.15;;;7.70;99.90;;;;;;5041090;28;20029;-57
2023/03/19 05:32:14;;;;;;;8.65;6.63;;;7.70;99.90;;;;;;5044072;28;20029;-57
2023/03/19 05:34:40;;;;;;;7.20;6.50;;;7.70;99.90;;;;;;5043490;28;20107;-56
2023/03/19 05:37:08;;;;;;;7.47;6.78;;;7.80;99.90;;;;;;5041909;28;20097;-56
2023/03/19 05:39:34;;;;;;;7.35;6.28;;;7.70;99.90;;;;;;5043148;28;20025;-56
2023/03/19 05:41:59;;;;;;;8.32;6.28;;;7.80;99.90;;;;;;5043661;28;20473;-56
2023/03/19 05:44:25;;;;;;;6.68;5.70;;;7.80;99.90;;;;;;5037725;28;20084;-53
2023/03/19 05:46:51;;;;;;;6.63;6.03;;;7.80;99.90;;;;;;5047604;28;20555;-56
2023/03/19 05:49:16;;;;;;;7.20;6.45;;;7.80;99.90;;;;;;5035738;28;20029;-58
2023/03/19 05:51:42;;;;;;;6.45;5.55;;;7.80;99.90;;;;;;5047669;28;20036;-55
2023/03/19 05:54:07;;;;;;;6.68;5.80;;;7.80;99.90;;;;;;5043586;28;20029;-55
2023/03/19 05:56:33;;;;;;;6.97;5.85;;;7.80;99.90;;;;;;5044446;28;20036;-56
2023/03/19 05:58:59;;;;;;;8.88;6.13;;;7.90;99.90;;;;;;5048681;28;20029;-55
2023/03/19 06:01:24;;;;;;;7.25;6.20;;;7.80;99.90;;;;;;5037222;28;20025;-57
2023/03/19 06:03:50;;;;;;;9.93;6.38;;;7.90;99.90;;;;;;5047526;28;20100;-54
2023/03/19 06:06:16;;;;;;;9.40;7.00;;;7.90;99.90;;;;;;5044227;28;20020;-56
2023/03/19 06:08:42;;;;;;;7.95;6.72;;;7.90;99.90;;;;;;5046205;28;20479;-56
2023/03/19 06:11:08;;;;;;;6.45;5.68;;;7.90;99.90;;;;;;5043051;28;20060;-55
2023/03/19 06:13:33;;;;;;;6.70;6.05;;;7.90;99.90;;;;;;5038389;28;20092;-55
2023/03/19 06:16:00;;;;;;;7.10;5.85;;;7.90;99.90;;;;;;5043176;28;20029;-56
2023/03/19 06:18:25;;;;;;;7.05;6.13;;;7.90;99.90;;;;;;5044021;28;20072;-55
2023/03/19 06:20:51;;;;;;;6.65;5.95;;;7.90;99.90;;;;;;5044260;28;20061;-54
2023/03/19 06:23:17;;;;;;;5.93;5.03;;;7.90;99.90;;;;;;5037181;28;20013;-56
2023/03/19 06:25:43;;;;;;;5.88;5.30;;;7.90;99.90;;;;;;5047423;28;20032;-56
2023/03/19 06:28:09;;;;;;;6.03;5.43;;;7.90;99.90;;;;;;5046585;28;20395;-56
2023/03/19 06:30:35;;;;;;;7.10;6.15;;;8.00;99.90;;;;;;5043937;28;20577;-55
2023/03/19 06:33:01;;;;;;;7.88;6.15;;;8.00;99.90;;;;;;5039436;28;20032;-53
2023/03/19 06:35:26;;;;;;;7.43;6.70;;;8.00;99.90;;;;;;5043051;28;20276;-54
2023/03/19 06:37:52;;;;;;;7.95;5.60;;;8.00;99.90;;;;;;5043938;28;20025;-54
2023/03/19 06:40:18;;;;;;;6.15;5.50;;;8.00;99.90;;;;;;5047036;28;20024;-57
2023/03/19 06:42:45;;;;;;;6.80;5.80;;;8.10;99.90;;;;;;5043803;28;20048;-57
2023/03/19 06:45:11;;;;;;;6.63;5.53;;;8.10;99.90;;;;;;5051054;28;20025;-53
2023/03/19 06:47:40;;;;;;;7.88;6.13;;;8.10;99.90;;;;;;5042316;28;20183;-57
2023/03/19 06:50:06;;;;;;;7.35;6.63;;;8.20;99.90;;;;;;5047677;28;20527;-54
2023/03/19 06:52:31;;;;;;;6.82;6.13;;;8.20;99.90;;;;;;5048103;28;20079;-55
2023/03/19 06:54:57;;;;;;;6.70;6.07;;;8.20;99.90;;;;;;5045709;28;20040;-56
2023/03/19 06:57:22;;;;;;;7.18;6.20;;;8.20;99.90;;;;;;5044236;28;20037;-56
2023/03/19 06:59:48;;;;;;;8.13;6.95;;;8.30;99.90;;;;;;5044151;28;20088;-57
2023/03/19 07:02:14;;;;;;;8.35;6.32;;;8.30;99.90;;;;;;5046004;28;20509;-56
2023/03/19 07:04:39;;;;;;;9.82;6.70;;;8.40;99.90;;;;;;5043983;28;20025;-55
2023/03/19 07:07:05;;;;;;;7.15;6.38;;;8.40;99.90;;;;;;5041801;28;20423;-57
2023/03/19 07:09:31;;;;;;;8.77;6.65;;;8.50;99.90;;;;;;5049165;28;20040;-55
2023/03/19 07:11:57;;;;;;;7.07;6.38;;;8.50;99.90;;;;;;5045869;28;20223;-53
2023/03/19 07:14:23;;;;;;;8.65;7.38;;;8.60;99.90;;;;;;5051055;28;20481;-56
2023/03/19 07:16:49;;;;;;;8.07;6.53;;;8.70;99.90;;;;;;5050324;28;20026;-56
2023/03/19 07:19:14;;;;;;;9.50;7.50;;;8.80;99.90;;;;;;5050535;28;20029;-54
2023/03/19 07:21:40;;;;;;;8.70;6.90;;;8.80;99.90;;;;;;5042801;28;20484;-57
2023/03/19 07:24:06;;;;;;;8.82;6.57;;;8.90;99.90;;;;;;5051585;28;20052;-57
2023/03/19 07:26:32;;;;;;;9.57;7.43;;;8.90;99.90;;;;;;5041591;28;20040;-57
2023/03/19 07:28:57;;;;;;;7.07;6.38;;;9.00;99.90;;;;;;5045925;28;20036;-57
2023/03/19 07:31:23;;;;;;;7.95;7.15;;;9.10;99.90;;;;;;5042919;28;20465;-57
2023/03/19 07:33:48;;;;;;;8.63;7.07;;;9.10;99.90;;;;;;5050630;28;20035;-57
2023/03/19 07:36:14;;;;;;;9.98;7.75;;;9.10;99.90;;;;;;5051040;28;20143;-57
2023/03/19 07:38:40;;;;;;;7.80;7.00;;;9.20;99.90;;;;;;5040795;28;20060;-57
2023/03/19 07:41:05;;;;;;;8.27;6.47;;;9.30;99.90;;;;;;5042141;28;20022;-55
2023/03/19 07:43:31;;;;;;;9.02;7.18;;;9.30;99.90;;;;;;5046078;28;20090;-55
2023/03/19 07:45:57;;;;;;;9.55;7.82;;;9.40;99.90;;;;;;5050763;28;20033;-53
2023/03/19 07:48:23;;;;;;;9.38;7.63;;;9.50;99.90;;;;;;5046546;28;20256;-53
2023/03/19 07:50:51;;;;;;;8.98;7.47;;;9.60;99.90;;;;;;5048380;28;20312;-55
2023/03/19 07:53:17;;;;;;;8.57;7.65;;;9.70;99.90;;;;;;5043734;28;20043;-56
2023/03/19 07:55:43;;;;;;;11.20;8.15;;;9.80;99.90;;;;;;5047389;28;20461;-52
2023/03/19 07:58:08;;;;;;;8.88;7.35;;;9.90;99.90;;;;;;5044028;28;20021;-53
2023/03/19 08:00:34;;;;;;;9.73;7.97;;;10.00;99.90;;;;;;5044445;28;20021;-53
2023/03/19 08:02:59;;;;;;;8.27;7.47;;;10.00;99.90;;;;;;5049210;28;20029;-56
2023/03/19 08:05:25;;;;;;;8.68;7.75;;;10.10;99.90;;;;;;5045449;28;20076;-53
2023/03/19 08:07:51;;;;;;;8.88;7.38;;;10.20;99.90;;;;;;5048699;28;20060;-58
2023/03/19 08:10:17;;;;;;;9.77;7.90;;;10.30;99.90;;;;;;5044585;28;20025;-55
2023/03/19 08:12:42;;;;;;;8.32;7.30;;;10.30;99.90;;;;;;5050427;28;20029;-57
2023/03/19 08:15:10;;;;;;;9.20;8.30;;;10.40;99.90;;;;;;5050166;28;20482;-54
2023/03/19 08:17:39;;;;;;;8.65;6.82;;;10.50;99.90;;;;;;5045335;28;20033;-55
2023/03/19 08:20:07;;;;;;;8.40;6.97;;;10.60;99.90;;;;;;5044359;28;20463;-54
2023/03/19 08:22:37;;;;;;;9.38;7.13;;;10.60;99.90;;;;;;5049896;28;20032;-55
2023/03/19 08:25:04;;;;;;;10.80;6.90;;;10.70;99.90;;;;;;5046658;28;20017;-56
2023/03/19 08:27:30;;;;;;;8.05;7.25;;;10.80;99.90;;;;;;5043613;28;20025;-55
2023/03/19 08:29:59;;;;;;;9.30;7.90;;;10.90;99.90;;;;;;5046208;28;20462;-52
2023/03/19 08:32:24;;;;;;;8.80;7.32;;;11.00;99.90;;;;;;5047075;28;20029;-54
2023/03/19 08:34:50;;;;;;;7.85;7.05;;;11.10;99.90;;;;;;5041561;28;20023;-55
2023/03/19 08:37:16;;;;;;;7.43;6.28;;;11.20;99.90;;;;;;5044195;28;20030;-56
2023/03/19 08:39:42;;;;;;;7.32;6.53;;;11.40;99.90;;;;;;5047835;28;20025;-55
2023/03/19 08:42:07;;;;;;;7.88;7.07;;;11.50;99.90;;;;;;5047463;28;20029;-57
2023/03/19 08:44:33;;;;;;;8.70;6.72;;;11.60;99.90;;;;;;5046528;28;20028;-58
2023/03/19 08:46:58;;;;;;;8.40;5.57;;;11.60;99.90;;;;;;5047950;28;20122;-58
2023/03/19 08:49:24;;;;;;;7.63;6.57;;;11.70;99.90;;;;;;5044443;28;20021;-53
2023/03/19 08:51:49;;;;;;;7.75;6.22;;;11.80;99.90;;;;;;5041423;28;20029;-56
2023/03/19 08:54:16;;;;;;;6.90;5.90;;;11.90;99.90;;;;;;5044533;28;20017;-57
2023/03/19 08:56:42;;;;;;;7.38;6.57;;;11.90;99.90;;;;;;5044015;28;20033;-52
2023/03/19 08:59:08;;;;;;;6.55;5.53;;;12.00;99.90;;;;;;5049484;28;20509;-55
2023/03/19 09:01:34;;;;;;;6.57;5.97;;;12.20;99.90;;;;;;5045756;28;20033;-57
2023/03/19 09:03:59;;;;;;;7.25;5.88;;;12.30;99.90;;;;;;5049302;28;20013;-54
2023/03/19 09:06:25;;;;;;;5.82;5.22;;;12.40;99.90;;;;;;5045775;28;20029;-58
2023/03/19 09:08:51;;;;;;;5.97;5.45;;;12.60;99.90;;;;;;5042057;28;20029;-53
2023/03/19 09:11:17;;;;;;;5.78;5.20;;;12.80;99.90;;;;;;5037379;28;20426;-57
2023/03/19 09:13:42;;;;;;;8.05;5.40;;;13.00;99.90;;;;;;5045580;28;20025;-57
2023/03/19 09:16:08;;;;;;;6.40;4.90;;;13.30;99.90;;;;;;5037299;28;20026;-57
2023/03/19 09:18:34;;;;;;;7.50;4.60;;;13.50;99.90;;;;;;5041506;28;20037;-57
2023/03/19 09:21:00;;;;;;;5.03;4.53;;;13.70;99.90;;;;;;5050129;28;20017;-58
2023/03/19 09:23:26;;;;;;;6.53;4.50;;;14.00;99.90;;;;;;5044602;28;20025;-57
2023/03/19 09:25:52;;;;;;;4.60;4.00;;;14.10;99.90;;;;;;5047786;28;20050;-57
2023/03/19 09:28:18;;;;;;;5.30;3.90;;;14.30;99.90;;;;;;5044401;28;20120;-57
2023/03/19 09:30:48;;;;;;;4.40;3.30;;;14.50;99.90;;;;;;5044844;28;20396;-59
2023/03/19 09:33:15;;;;;;;5.05;4.03;;;14.60;99.90;;;;;;5048149;28;20024;-58
2023/03/19 09:35:41;;;;;;;4.72;3.90;;;14.80;99.90;;;;;;5043185;28;20032;-59
2023/03/19 09:38:07;;;;;;;3.88;3.28;;;14.80;99.90;;;;;;5045989;28;20485;-55
2023/03/19 09:40:43;;;;;;;3.75;2.58;;;14.70;99.90;;;;;;5048358;28;20033;-57
2023/03/19 09:43:27;;;;;;;;;;;14.60;99.90;;;;;;5045664;28;20025;-58
2023/03/19 09:45:53;;;;;;;3.95;2.70;;;14.50;99.90;;;;;;5041115;28;19904;-56
2023/03/19 09:48:31;;;;;;;4.20;2.63;;;14.40;99.90;;;;;;5040146;28;20163;-56
2023/03/19 09:50:59;;;;;;;4.00;2.80;;;14.40;99.90;;;;;;5041265;28;20130;-57
2023/03/19 09:54:07;;;;;;;3.10;2.80;;;14.30;99.90;;;;;;5042064;28;20412;-57
2023/03/19 09:56:33;;;;;;;3.35;3.05;;;14.20;99.90;;;;;;5017434;28;20403;-57
2023/03/19 09:58:59;;;;;;;3.35;2.10;;;14.10;99.90;;;;;;5022816;28;20037;-58
2023/03/19 10:01:34;;;;;;;2.70;2.50;;;14.00;99.90;;;;;;5026327;28;20061;-56
2023/03/19 10:04:33;;;;;;;2.50;2.00;;;14.00;99.90;;;;;;5048846;28;20021;-57
2023/03/19 10:07:17;;;;;;;4.30;2.50;;;14.00;99.90;;;;;;5040580;28;20419;-54
2023/03/19 10:09:57;;;;;;;3.25;2.60;;;13.90;99.90;;;;;;5044975;28;20671;-55
2023/03/19 10:12:48;;;;;;;8.20;3.20;;;13.90;99.90;;;;;;5042707;28;20032;-54
2023/03/19 10:15:18;;;;;;;3.75;2.63;;;13.90;99.90;;;;;;5042622;28;20032;-56
2023/03/19 10:18:05;;;;;;;3.97;3.00;;;13.90;99.90;;;;;;5047351;28;20029;-56
2023/03/19 10:20:47;;;;;;;3.55;3.00;;;13.90;99.90;;;;;;5047654;28;20029;-56
2023/03/19 10:23:28;;;;;;;2.75;2.50;;;13.90;99.90;;;;;;5047670;28;20100;-58
2023/03/19 10:25:57;;;;;;;4.60;2.50;;;13.90;99.90;;;;;;5050487;28;20013;-54
2023/03/19 10:28:26;;;;;;;4.05;3.17;;;13.90;99.90;;;;;;5053051;28;20021;-56
2023/03/19 10:31:06;;;;;;;2.50;2.30;;;13.90;99.90;;;;;;5045728;28;20033;-57
2023/03/19 10:33:43;;;;;;;2.88;2.63;;;13.90;99.90;;;;;;5051785;28;20112;-56
2023/03/19 10:36:10;;;;;;;3.20;2.83;;;13.80;99.90;;;;;;5047082;28;20025;-57
2023/03/19 10:38:42;;;;;;;2.95;2.63;;;13.90;99.90;;;;;;5049314;28;20162;-58
2023/03/19 10:41:39;;;;;;;3.42;2.75;;;13.90;99.90;;;;;;5044775;28;20514;-56
2023/03/19 10:44:13;;;;;;;7.05;3.03;;;14.20;99.90;;;;;;5040005;28;20088;-57
2023/03/19 10:46:39;;;;;;;3.10;2.67;;;14.40;99.90;;;;;;5050115;28;20056;-57
2023/03/19 10:49:11;;;;;;;2.47;2.28;;;14.70;99.90;;;;;;5044908;28;20033;-57
2023/03/19 10:51:38;;;;;;;3.28;2.97;;;14.90;99.90;;;;;;5049538;28;20020;-57
2023/03/19 10:54:21;;;;;;;3.10;2.78;;;15.10;99.90;;;;;;5040583;28;20514;-54
2023/03/19 10:56:48;;;;;;;2.72;2.08;;;15.20;99.90;;;;;;5050280;28;20502;-54
2023/03/19 10:59:23;;;;;;;2.72;2.53;;;15.20;99.90;;;;;;5048998;28;20436;-57
2023/03/19 11:01:54;;;;;;;2.78;2.58;;;15.30;99.90;;;;;;5039326;28;20013;-58
2023/03/19 11:04:21;;;;;;;4.32;2.63;;;15.30;99.90;;;;;;5050616;28;20104;-58
2023/03/19 11:06:52;;;;;;;3.22;2.15;;;15.30;99.90;;;;;;5039479;28;20471;-58
2023/03/19 11:09:36;;;;;;;4.60;2.30;;;15.30;99.90;;;;;;5051881;28;20099;-56
2023/03/19 11:12:12;;;;;;;2.92;2.13;;;15.30;99.90;;;;;;5040929;28;20025;-58
2023/03/19 11:14:38;;;;;;;;;;;15.30;99.90;;;;;;5051452;28;20029;-58
2023/03/19 11:17:04;;;;;;;2.45;2.25;;;15.40;99.90;;;;;;5046134;28;19909;-57
2023/03/19 11:19:33;;;;;;;2.42;2.22;;;15.40;99.90;;;;;;5049524;28;20029;-57
2023/03/19 11:22:09;;;;;;;2.95;2.42;;;15.40;99.90;;;;;;5039305;28;20033;-57
2023/03/19 11:24:39;;;;;;;3.40;3.10;;;15.50;99.90;;;;;;5047322;28;20449;-57
2023/03/19 11:27:07;;;;;;;3.42;3.13;;;15.60;99.90;;;;;;5041294;28;20476;-55
2023/03/19 11:29:39;;;;;;;5.20;3.08;;;15.80;99.90;;;;;;5045956;28;20125;-56
2023/03/19 11:32:08;;;;;;;3.45;3.15;;;16.00;99.90;;;;;;5043914;28;20036;-57
2023/03/19 11:34:49;;;;;;;3.03;2.67;;;16.20;99.90;;;;;;5044199;28;20557;-58
2023/03/19 11:37:21;;;;;;;4.13;3.35;;;16.30;99.90;;;;;;5049872;28;20550;-58
2023/03/19 11:40:12;;;;;;;3.55;2.70;;;16.50;99.90;;;;;;5038824;28;20024;-58
2023/03/19 11:42:52;;;;;;;3.70;3.25;;;16.60;99.90;;;;;;5049920;28;20021;-56
2023/03/19 11:45:46;;;;;;;3.38;2.85;;;16.60;99.90;;;;;;5042942;28;20017;-54
2023/03/19 11:48:30;;;;;;;4.70;3.53;;;16.60;99.90;;;;;;5046735;28;20056;-56
2023/03/19 11:51:18;;;;;;;3.88;3.20;;;16.70;99.90;;;;;;5040232;28;20029;-53
2023/03/19 11:54:04;;;;;;;3.72;3.42;;;16.70;99.90;;;;;;5043093;28;20029;-57
2023/03/19 11:57:01;;;;;;;6.40;3.47;;;16.80;99.90;;;;;;5047587;28;20388;-58
2023/03/19 11:59:58;;;;;;;7.68;3.67;;;17.00;99.90;;;;;;5062798;22;20064;-54
2023/03/19 12:02:50;;;;;;;4.72;3.22;;;17.00;99.90;;;;;;5034112;28;20038;-52
2023/03/19 12:05:54;;;;;;;3.78;2.80;;;16.90;99.90;;;;;;5038923;28;20100;-52
2023/03/19 12:08:32;;;;;;;5.82;3.53;;;16.90;99.90;;;;;;5041313;28;20040;-50
2023/03/19 12:11:21;;;;;;;5.72;3.70;;;16.80;99.90;;;;;;5060575;28;20020;-55
2023/03/19 12:13:56;;;;;;;4.15;3.58;;;16.90;99.90;;;;;;5069944;28;20411;-52
2023/03/19 12:16:27;;;;;;;8.55;4.15;;;16.90;99.90;;;;;;5071049;28;20020;-53
2023/03/19 12:19:10;;;;;;;4.43;3.90;;;16.90;99.90;;;;;;5061040;28;20216;-53
2023/03/19 12:21:39;;;;;;;7.32;4.10;;;16.90;99.90;;;;;;5062115;28;20025;-52
2023/03/19 12:24:24;;;;;;;6.03;4.38;;;16.90;99.90;;;;;;5065628;28;20023;-53
2023/03/19 12:26:56;;;;;;;3.63;3.33;;;16.80;99.90;;;;;;5052909;28;20020;-52
2023/03/19 12:29:28;;;;;;;5.03;3.40;;;16.70;99.90;;;;;;5058869;28;20028;-52
2023/03/19 12:32:12;;;;;;;4.47;3.20;;;16.70;99.90;;;;;;5055044;28;20017;-54
2023/03/19 12:34:48;;;;;;;3.15;2.45;;;16.70;99.90;;;;;;5060336;28;20055;-54
2023/03/19 12:37:13;;;;;;;2.63;2.10;;;16.70;99.90;;;;;;5065691;28;20029;-54
2023/03/19 12:39:45;;;;;;;2.72;2.28;;;16.70;99.90;;;;;;5065394;28;20081;-52
2023/03/19 12:42:17;;;;;;;3.35;2.47;;;16.70;99.90;;;;;;5066720;28;20023;-51
2023/03/19 12:44:49;;;;;;;4.47;2.63;;;16.60;99.90;;;;;;5067587;28;20024;-52
2023/03/19 12:47:23;;;;;;;4.93;3.10;;;16.70;99.90;;;;;;5065703;28;20033;-52
2023/03/19 12:49:55;;;;;;;4.57;2.60;;;16.60;99.90;;;;;;5066417;28;20025;-51
2023/03/19 12:52:32;;;;;;;4.35;2.58;;;16.50;99.90;;;;;;5065302;28;20613;-53
2023/03/19 12:55:04;;;;;;;2.35;2.03;;;16.40;99.90;;;;;;5057700;28;20025;-50
2023/03/19 12:57:37;;;;;;;3.70;2.72;;;16.40;99.90;;;;;;5064520;28;20070;-52
2023/03/19 13:00:39;;;;;;;2.30;2.10;;;16.40;99.90;;;;;;5065213;28;20021;-52